createdAt,value
2019-03-17T00:17:57.873Z,4.23
2019-03-17T00:38:07.224Z,2.23
2019-03-17T00:58:16.708Z,1.68
2019-03-17T01:18:26.402Z,1.28
2019-03-17T01:38:37.962Z,2.20
2019-03-17T01:58:39.645Z,2.92
2019-03-17T02:18:39.054Z,3.77
2019-03-17T02:38:48.483Z,4.48
2019-03-17T02:58:58.007Z,3.50
2019-03-17T03:19:09.631Z,3.62
2019-03-17T03:39:09.045Z,2.75
2019-03-17T03:59:18.431Z,2.98
2019-03-17T04:19:27.751Z,2.49
2019-03-17T04:39:38.241Z,2.59
2019-03-17T04:59:37.763Z,1.84
2019-03-17T05:19:47.269Z,1.86
2019-03-17T05:39:59.471Z,2.08
2019-03-17T06:00:00.410Z,2.57
2019-03-17T06:20:01.931Z,2.04
2019-03-17T06:40:01.252Z,2.22
2019-03-17T07:00:10.923Z,2.52
2019-03-17T07:20:20.364Z,2.68
2019-03-17T07:40:29.758Z,3.11
2019-03-17T08:00:39.432Z,2.47
2019-03-17T08:20:48.883Z,2.85
2019-03-17T08:41:02.814Z,3.93
2019-03-17T09:00:59.096Z,4.07
2019-03-17T09:21:10.770Z,3.37
2019-03-17T09:41:12.443Z,2.55
2019-03-17T10:01:14.084Z,2.73
2019-03-17T10:21:13.555Z,2.49
2019-03-17T10:41:25.217Z,2.05
2019-03-17T11:01:24.640Z,1.52
2019-03-17T11:21:34.168Z,1.71
2019-03-17T11:41:43.654Z,1.68
2019-03-17T12:01:53.002Z,1.64
2019-03-17T12:22:09.008Z,1.78
2019-03-17T12:42:11.428Z,1.84
2019-03-17T13:02:19.594Z,1.77
2019-03-17T13:22:31.548Z,2.97
2019-03-17T13:42:34.433Z,2.67
2019-03-17T14:02:36.159Z,2.47
2019-03-17T14:22:35.568Z,2.91
2019-03-17T14:42:45.927Z,3.29
2019-03-17T15:02:45.414Z,3.27
2019-03-17T15:22:56.479Z,3.43
2019-03-17T15:42:55.979Z,4.23
2019-03-17T16:03:05.477Z,4.87
2019-03-17T16:23:15.373Z,5.92
2019-03-17T16:43:25.385Z,4.77
2019-03-17T17:03:33.991Z,5.47
2019-03-17T17:23:44.170Z,4.79
2019-03-17T17:43:43.930Z,5.49
2019-03-17T18:03:53.506Z,5.23
2019-03-17T18:24:03.064Z,3.99
2019-03-17T18:44:12.607Z,4.40
2019-03-17T19:04:22.146Z,5.19
2019-03-17T19:24:32.915Z,3.24
2019-03-17T19:44:33.114Z,3.59
2019-03-17T20:04:35.321Z,4.09
2019-03-17T20:24:42.100Z,5.52
2019-03-17T20:44:57.422Z,5.57
2019-03-17T21:04:56.832Z,5.99
2019-03-17T21:25:06.264Z,5.94
2019-03-17T21:45:17.874Z,6.04
2019-03-17T22:05:17.165Z,6.77
2019-03-17T22:25:26.542Z,6.14
2019-03-17T22:45:36.012Z,6.26
2019-03-17T23:05:45.443Z,6.62
2019-03-17T23:25:55.017Z,6.15
2019-03-17T23:46:04.396Z,6.04
